sensor_id;sensor_type;location;lat;lon;timestamp;P1;durP1;ratioP1;P2;durP2;ratioP2
71253;SDS011;59019;47.638;18.966;2023-04-01T00:01:58;3.23;;;1.00;;
71253;SDS011;59019;47.638;18.966;2023-04-01T00:04:23;2.97;;;0.95;;
71253;SDS011;59019;47.638;18.966;2023-04-01T00:06:48;5.17;;;1.30;;
71253;SDS011;59019;47.638;18.966;2023-04-01T00:09:14;4.00;;;1.10;;
71253;SDS011;59019;47.638;18.966;2023-04-01T00:11:40;4.85;;;0.98;;
71253;SDS011;59019;47.638;18.966;2023-04-01T00:14:06;4.77;;;0.97;;
71253;SDS011;59019;47.638;18.966;2023-04-01T00:16:32;3.58;;;1.00;;
71253;SDS011;59019;47.638;18.966;2023-04-01T00:18:58;3.03;;;1.00;;
71253;SDS011;59019;47.638;18.966;2023-04-01T00:21:24;3.57;;;1.13;;
71253;SDS011;59019;47.638;18.966;2023-04-01T00:23:50;3.63;;;1.20;;
71253;SDS011;59019;47.638;18.966;2023-04-01T00:26:16;3.97;;;0.90;;
71253;SDS011;59019;47.638;18.966;2023-04-01T00:28:45;3.30;;;0.90;;
71253;SDS011;59019;47.638;18.966;2023-04-01T00:31:11;3.87;;;1.30;;
71253;SDS011;59019;47.638;18.966;2023-04-01T00:33:37;4.10;;;0.93;;
71253;SDS011;59019;47.638;18.966;2023-04-01T00:36:05;3.55;;;0.90;;
71253;SDS011;59019;47.638;18.966;2023-04-01T00:38:40;3.97;;;1.00;;
71253;SDS011;59019;47.638;18.966;2023-04-01T00:41:07;3.67;;;1.13;;
71253;SDS011;59019;47.638;18.966;2023-04-01T00:43:34;3.67;;;1.13;;
71253;SDS011;59019;47.638;18.966;2023-04-01T00:46:00;4.50;;;1.00;;
71253;SDS011;59019;47.638;18.966;2023-04-01T00:48:27;4.82;;;0.90;;
71253;SDS011;59019;47.638;18.966;2023-04-01T00:50:59;3.83;;;1.10;;
71253;SDS011;59019;47.638;18.966;2023-04-01T00:53:30;5.25;;;1.10;;
71253;SDS011;59019;47.638;18.966;2023-04-01T00:55:58;4.75;;;0.90;;
71253;SDS011;59019;47.638;18.966;2023-04-01T00:58:29;3.58;;;1.00;;
71253;SDS011;59019;47.638;18.966;2023-04-01T01:00:58;3.58;;;0.93;;
71253;SDS011;59019;47.638;18.966;2023-04-01T01:03:25;3.73;;;0.80;;
71253;SDS011;59019;47.638;18.966;2023-04-01T01:06:03;3.60;;;1.10;;
71253;SDS011;59019;47.638;18.966;2023-04-01T01:09:06;4.03;;;0.90;;
71253;SDS011;59019;47.638;18.966;2023-04-01T01:19:50;3.40;;;0.93;;
71253;SDS011;59019;47.638;18.966;2023-04-01T01:25:32;3.33;;;0.80;;
71253;SDS011;59019;47.638;18.966;2023-04-01T01:31:15;2.70;;;0.80;;
71253;SDS011;59019;47.638;18.966;2023-04-01T01:33:58;3.17;;;0.85;;
71253;SDS011;59019;47.638;18.966;2023-04-01T01:36:36;2.60;;;0.70;;
71253;SDS011;59019;47.638;18.966;2023-04-01T01:39:05;3.20;;;0.80;;
71253;SDS011;59019;47.638;18.966;2023-04-01T01:41:33;3.22;;;0.80;;
71253;SDS011;59019;47.638;18.966;2023-04-01T01:43:59;5.97;;;0.97;;
71253;SDS011;59019;47.638;18.966;2023-04-01T01:46:29;3.63;;;0.80;;
71253;SDS011;59019;47.638;18.966;2023-04-01T01:48:55;3.25;;;0.80;;
71253;SDS011;59019;47.638;18.966;2023-04-01T01:51:24;4.07;;;0.93;;
71253;SDS011;59019;47.638;18.966;2023-04-01T01:53:52;3.88;;;0.93;;
71253;SDS011;59019;47.638;18.966;2023-04-01T01:56:18;4.60;;;0.70;;
71253;SDS011;59019;47.638;18.966;2023-04-01T01:58:49;5.35;;;1.85;;
71253;SDS011;59019;47.638;18.966;2023-04-01T02:01:20;3.42;;;0.90;;
71253;SDS011;59019;47.638;18.966;2023-04-01T02:03:51;3.40;;;0.70;;
71253;SDS011;59019;47.638;18.966;2023-04-01T02:06:18;3.47;;;0.60;;
71253;SDS011;59019;47.638;18.966;2023-04-01T02:08:49;2.60;;;0.50;;
71253;SDS011;59019;47.638;18.966;2023-04-01T02:11:19;2.58;;;0.63;;
71253;SDS011;59019;47.638;18.966;2023-04-01T02:16:28;3.10;;;0.83;;
71253;SDS011;59019;47.638;18.966;2023-04-01T02:19:17;3.80;;;0.80;;
71253;SDS011;59019;47.638;18.966;2023-04-01T02:21:50;2.40;;;0.60;;
71253;SDS011;59019;47.638;18.966;2023-04-01T02:24:21;3.28;;;0.80;;
71253;SDS011;59019;47.638;18.966;2023-04-01T02:26:51;3.28;;;0.88;;
71253;SDS011;59019;47.638;18.966;2023-04-01T02:29:20;3.33;;;0.80;;
71253;SDS011;59019;47.638;18.966;2023-04-01T02:31:48;2.25;;;0.60;;
71253;SDS011;59019;47.638;18.966;2023-04-01T02:34:15;3.00;;;0.70;;
71253;SDS011;59019;47.638;18.966;2023-04-01T02:36:41;3.03;;;0.80;;
71253;SDS011;59019;47.638;18.966;2023-04-01T02:39:09;3.00;;;0.80;;
71253;SDS011;59019;47.638;18.966;2023-04-01T02:41:41;3.70;;;0.70;;
71253;SDS011;59019;47.638;18.966;2023-04-01T02:44:09;3.05;;;0.70;;
71253;SDS011;59019;47.638;18.966;2023-04-01T02:46:36;3.45;;;0.82;;
71253;SDS011;59019;47.638;18.966;2023-04-01T02:49:03;2.33;;;0.70;;
71253;SDS011;59019;47.638;18.966;2023-04-01T02:51:29;2.55;;;0.77;;
71253;SDS011;59019;47.638;18.966;2023-04-01T02:53:54;3.27;;;0.70;;
71253;SDS011;59019;47.638;18.966;2023-04-01T02:56:20;3.20;;;0.90;;
71253;SDS011;59019;47.638;18.966;2023-04-01T02:58:46;3.23;;;0.60;;
71253;SDS011;59019;47.638;18.966;2023-04-01T03:01:12;4.13;;;0.80;;
71253;SDS011;59019;47.638;18.966;2023-04-01T03:03:38;2.83;;;0.55;;
71253;SDS011;59019;47.638;18.966;2023-04-01T03:06:07;3.70;;;0.90;;
71253;SDS011;59019;47.638;18.966;2023-04-01T03:08:34;3.13;;;0.70;;
71253;SDS011;59019;47.638;18.966;2023-04-01T03:11:00;4.27;;;0.93;;
71253;SDS011;59019;47.638;18.966;2023-04-01T03:13:25;3.43;;;0.70;;
71253;SDS011;59019;47.638;18.966;2023-04-01T03:15:51;3.40;;;0.70;;
71253;SDS011;59019;47.638;18.966;2023-04-01T03:18:17;4.13;;;0.90;;
71253;SDS011;59019;47.638;18.966;2023-04-01T03:20:43;4.25;;;0.70;;
71253;SDS011;59019;47.638;18.966;2023-04-01T03:23:08;2.80;;;0.63;;
71253;SDS011;59019;47.638;18.966;2023-04-01T03:25:34;3.50;;;0.70;;
71253;SDS011;59019;47.638;18.966;2023-04-01T03:27:59;2.90;;;0.80;;
71253;SDS011;59019;47.638;18.966;2023-04-01T03:30:25;2.67;;;0.70;;
71253;SDS011;59019;47.638;18.966;2023-04-01T03:32:52;2.90;;;0.60;;
71253;SDS011;59019;47.638;18.966;2023-04-01T03:35:17;3.83;;;0.73;;
71253;SDS011;59019;47.638;18.966;2023-04-01T03:37:43;3.03;;;0.70;;
71253;SDS011;59019;47.638;18.966;2023-04-01T03:40:09;3.43;;;0.83;;
71253;SDS011;59019;47.638;18.966;2023-04-01T03:42:35;2.75;;;0.70;;
71253;SDS011;59019;47.638;18.966;2023-04-01T03:45:01;3.15;;;0.70;;
71253;SDS011;59019;47.638;18.966;2023-04-01T03:47:28;2.87;;;0.70;;
71253;SDS011;59019;47.638;18.966;2023-04-01T03:49:53;3.63;;;0.80;;
71253;SDS011;59019;47.638;18.966;2023-04-01T03:52:20;4.20;;;0.67;;
71253;SDS011;59019;47.638;18.966;2023-04-01T03:54:45;3.35;;;0.60;;
71253;SDS011;59019;47.638;18.966;2023-04-01T03:57:11;2.67;;;0.70;;
71253;SDS011;59019;47.638;18.966;2023-04-01T03:59:37;2.88;;;0.70;;
71253;SDS011;59019;47.638;18.966;2023-04-01T04:02:03;3.77;;;0.90;;
71253;SDS011;59019;47.638;18.966;2023-04-01T04:04:28;4.20;;;0.90;;
71253;SDS011;59019;47.638;18.966;2023-04-01T04:06:55;2.53;;;0.80;;
71253;SDS011;59019;47.638;18.966;2023-04-01T04:09:21;4.33;;;0.70;;
71253;SDS011;59019;47.638;18.966;2023-04-01T04:11:47;4.03;;;0.98;;
71253;SDS011;59019;47.638;18.966;2023-04-01T04:14:14;4.55;;;1.15;;
71253;SDS011;59019;47.638;18.966;2023-04-01T04:16:39;3.03;;;0.70;;
71253;SDS011;59019;47.638;18.966;2023-04-01T04:19:05;5.78;;;1.10;;
71253;SDS011;59019;47.638;18.966;2023-04-01T04:21:31;2.83;;;1.00;;
71253;SDS011;59019;47.638;18.966;2023-04-01T04:23:56;3.67;;;1.10;;
71253;SDS011;59019;47.638;18.966;2023-04-01T04:26:24;2.65;;;0.77;;
71253;SDS011;59019;47.638;18.966;2023-04-01T04:28:50;3.40;;;0.95;;
71253;SDS011;59019;47.638;18.966;2023-04-01T04:31:19;2.77;;;0.70;;
71253;SDS011;59019;47.638;18.966;2023-04-01T04:33:47;3.53;;;1.00;;
71253;SDS011;59019;47.638;18.966;2023-04-01T04:36:13;3.25;;;0.70;;
71253;SDS011;59019;47.638;18.966;2023-04-01T04:38:38;2.85;;;0.70;;
71253;SDS011;59019;47.638;18.966;2023-04-01T04:41:08;4.00;;;0.60;;
71253;SDS011;59019;47.638;18.966;2023-04-01T04:43:48;3.38;;;0.80;;
71253;SDS011;59019;47.638;18.966;2023-04-01T04:46:15;2.65;;;0.70;;
71253;SDS011;59019;47.638;18.966;2023-04-01T04:48:40;5.13;;;0.80;;
71253;SDS011;59019;47.638;18.966;2023-04-01T04:51:06;3.33;;;0.70;;
71253;SDS011;59019;47.638;18.966;2023-04-01T04:53:32;3.13;;;0.70;;
71253;SDS011;59019;47.638;18.966;2023-04-01T04:55:57;3.40;;;0.83;;
71253;SDS011;59019;47.638;18.966;2023-04-01T04:58:23;5.07;;;0.80;;
71253;SDS011;59019;47.638;18.966;2023-04-01T05:00:48;3.70;;;0.85;;
71253;SDS011;59019;47.638;18.966;2023-04-01T05:03:14;2.90;;;0.70;;
71253;SDS011;59019;47.638;18.966;2023-04-01T05:05:40;3.47;;;0.90;;
71253;SDS011;59019;47.638;18.966;2023-04-01T05:08:16;3.00;;;0.80;;
71253;SDS011;59019;47.638;18.966;2023-04-01T05:10:42;2.90;;;0.77;;
71253;SDS011;59019;47.638;18.966;2023-04-01T05:13:07;3.17;;;1.07;;
71253;SDS011;59019;47.638;18.966;2023-04-01T05:15:33;3.13;;;0.77;;
71253;SDS011;59019;47.638;18.966;2023-04-01T05:17:59;4.22;;;0.77;;
71253;SDS011;59019;47.638;18.966;2023-04-01T05:20:25;3.63;;;0.77;;
71253;SDS011;59019;47.638;18.966;2023-04-01T05:22:55;2.78;;;0.98;;
71253;SDS011;59019;47.638;18.966;2023-04-01T05:25:21;5.13;;;1.02;;
71253;SDS011;59019;47.638;18.966;2023-04-01T05:27:46;4.00;;;0.90;;
71253;SDS011;59019;47.638;18.966;2023-04-01T05:30:13;4.60;;;0.93;;
71253;SDS011;59019;47.638;18.966;2023-04-01T05:32:39;3.17;;;0.82;;
71253;SDS011;59019;47.638;18.966;2023-04-01T05:35:05;4.55;;;0.95;;
71253;SDS011;59019;47.638;18.966;2023-04-01T05:37:33;2.73;;;0.60;;
71253;SDS011;59019;47.638;18.966;2023-04-01T05:40:00;3.47;;;0.75;;
71253;SDS011;59019;47.638;18.966;2023-04-01T05:42:26;2.42;;;0.60;;
71253;SDS011;59019;47.638;18.966;2023-04-01T05:44:52;4.33;;;0.70;;
71253;SDS011;59019;47.638;18.966;2023-04-01T05:47:18;4.70;;;0.70;;
71253;SDS011;59019;47.638;18.966;2023-04-01T05:49:43;3.33;;;0.80;;
71253;SDS011;59019;47.638;18.966;2023-04-01T05:52:09;2.22;;;0.60;;
71253;SDS011;59019;47.638;18.966;2023-04-01T05:54:34;3.57;;;0.80;;
71253;SDS011;59019;47.638;18.966;2023-04-01T05:57:00;4.43;;;0.73;;
71253;SDS011;59019;47.638;18.966;2023-04-01T05:59:25;4.63;;;0.80;;
71253;SDS011;59019;47.638;18.966;2023-04-01T06:01:51;4.00;;;1.00;;
71253;SDS011;59019;47.638;18.966;2023-04-01T06:04:17;2.90;;;0.80;;
71253;SDS011;59019;47.638;18.966;2023-04-01T06:06:44;3.72;;;1.05;;
71253;SDS011;59019;47.638;18.966;2023-04-01T06:09:17;3.90;;;1.17;;
71253;SDS011;59019;47.638;18.966;2023-04-01T06:11:55;3.43;;;0.80;;
71253;SDS011;59019;47.638;18.966;2023-04-01T06:20:30;3.72;;;0.73;;
71253;SDS011;59019;47.638;18.966;2023-04-01T06:25:42;3.00;;;0.93;;
71253;SDS011;59019;47.638;18.966;2023-04-01T06:37:14;2.88;;;0.90;;
71253;SDS011;59019;47.638;18.966;2023-04-01T06:40:19;3.33;;;0.90;;
71253;SDS011;59019;47.638;18.966;2023-04-01T06:42:56;3.97;;;0.88;;
71253;SDS011;59019;47.638;18.966;2023-04-01T06:51:11;2.70;;;0.70;;
71253;SDS011;59019;47.638;18.966;2023-04-01T06:54:06;4.87;;;1.13;;
71253;SDS011;59019;47.638;18.966;2023-04-01T06:56:37;4.25;;;1.23;;
71253;SDS011;59019;47.638;18.966;2023-04-01T06:59:09;3.97;;;0.90;;
71253;SDS011;59019;47.638;18.966;2023-04-01T07:01:47;3.13;;;0.80;;
71253;SDS011;59019;47.638;18.966;2023-04-01T07:06:54;3.67;;;0.80;;
71253;SDS011;59019;47.638;18.966;2023-04-01T07:09:24;2.58;;;0.90;;
71253;SDS011;59019;47.638;18.966;2023-04-01T07:11:53;3.22;;;1.05;;
71253;SDS011;59019;47.638;18.966;2023-04-01T07:14:28;3.78;;;1.00;;
71253;SDS011;59019;47.638;18.966;2023-04-01T07:17:16;4.18;;;1.00;;
71253;SDS011;59019;47.638;18.966;2023-04-01T07:19:47;3.60;;;1.00;;
71253;SDS011;59019;47.638;18.966;2023-04-01T07:22:32;5.35;;;1.10;;
71253;SDS011;59019;47.638;18.966;2023-04-01T07:25:02;3.03;;;0.85;;
71253;SDS011;59019;47.638;18.966;2023-04-01T07:27:36;3.15;;;0.98;;
71253;SDS011;59019;47.638;18.966;2023-04-01T07:30:02;3.20;;;0.83;;
71253;SDS011;59019;47.638;18.966;2023-04-01T07:32:42;4.30;;;0.90;;
71253;SDS011;59019;47.638;18.966;2023-04-01T07:35:24;4.85;;;0.98;;
71253;SDS011;59019;47.638;18.966;2023-04-01T07:46:03;3.00;;;0.90;;
71253;SDS011;59019;47.638;18.966;2023-04-01T07:57:19;2.90;;;0.80;;
71253;SDS011;59019;47.638;18.966;2023-04-01T08:02:30;3.63;;;0.90;;
71253;SDS011;59019;47.638;18.966;2023-04-01T08:10:40;3.83;;;0.85;;
71253;SDS011;59019;47.638;18.966;2023-04-01T08:21:32;3.27;;;0.80;;
71253;SDS011;59019;47.638;18.966;2023-04-01T08:24:06;3.67;;;0.80;;
71253;SDS011;59019;47.638;18.966;2023-04-01T08:26:42;3.17;;;0.90;;
71253;SDS011;59019;47.638;18.966;2023-04-01T08:29:13;3.97;;;1.00;;
71253;SDS011;59019;47.638;18.966;2023-04-01T08:31:49;4.25;;;0.82;;
71253;SDS011;59019;47.638;18.966;2023-04-01T08:34:26;2.93;;;0.70;;
71253;SDS011;59019;47.638;18.966;2023-04-01T08:37:11;3.95;;;0.88;;
71253;SDS011;59019;47.638;18.966;2023-04-01T08:48:27;3.37;;;0.90;;
71253;SDS011;59019;47.638;18.966;2023-04-01T08:53:57;4.45;;;1.00;;
71253;SDS011;59019;47.638;18.966;2023-04-01T08:56:32;2.97;;;0.80;;
71253;SDS011;59019;47.638;18.966;2023-04-01T09:04:44;3.60;;;0.95;;
71253;SDS011;59019;47.638;18.966;2023-04-01T09:13:09;3.50;;;1.00;;
71253;SDS011;59019;47.638;18.966;2023-04-01T09:15:49;4.30;;;1.13;;
71253;SDS011;59019;47.638;18.966;2023-04-01T09:18:21;4.22;;;1.20;;
71253;SDS011;59019;47.638;18.966;2023-04-01T09:23:47;3.97;;;1.10;;
71253;SDS011;59019;47.638;18.966;2023-04-01T09:31:45;4.63;;;0.90;;
71253;SDS011;59019;47.638;18.966;2023-04-01T09:37:01;3.63;;;0.90;;
71253;SDS011;59019;47.638;18.966;2023-04-01T09:39:58;3.22;;;0.88;;
71253;SDS011;59019;47.638;18.966;2023-04-01T09:45:32;10.02;;;3.20;;
71253;SDS011;59019;47.638;18.966;2023-04-01T09:50:57;4.77;;;1.10;;
71253;SDS011;59019;47.638;18.966;2023-04-01T09:53:52;5.85;;;1.20;;
71253;SDS011;59019;47.638;18.966;2023-04-01T10:29:37;6.32;;;1.20;;
71253;SDS011;59019;47.638;18.966;2023-04-01T11:28:55;4.07;;;0.87;;
71253;SDS011;59019;47.638;18.966;2023-04-01T11:53:41;6.05;;;1.30;;
71253;SDS011;59019;47.638;18.966;2023-04-01T12:02:23;5.93;;;1.35;;
71253;SDS011;59019;47.638;18.966;2023-04-01T12:22:13;4.90;;;0.95;;
71253;SDS011;59019;47.638;18.966;2023-04-01T12:47:16;4.60;;;0.80;;
71253;SDS011;59019;47.638;18.966;2023-04-01T12:55:48;3.53;;;0.80;;
71253;SDS011;59019;47.638;18.966;2023-04-01T12:58:38;5.50;;;0.90;;
71253;SDS011;59019;47.638;18.966;2023-04-01T13:01:29;3.38;;;0.73;;
71253;SDS011;59019;47.638;18.966;2023-04-01T13:09:51;5.82;;;1.33;;
71253;SDS011;59019;47.638;18.966;2023-04-01T13:12:36;3.42;;;1.00;;
71253;SDS011;59019;47.638;18.966;2023-04-01T13:29:18;4.72;;;0.70;;
71253;SDS011;59019;47.638;18.966;2023-04-01T13:31:58;4.07;;;1.05;;
71253;SDS011;59019;47.638;18.966;2023-04-01T13:37:24;3.63;;;0.80;;
71253;SDS011;59019;47.638;18.966;2023-04-01T13:42:47;6.03;;;1.08;;
71253;SDS011;59019;47.638;18.966;2023-04-01T13:59:55;3.33;;;0.65;;
71253;SDS011;59019;47.638;18.966;2023-04-01T14:02:44;3.47;;;0.80;;
71253;SDS011;59019;47.638;18.966;2023-04-01T14:12:57;10.50;;;4.78;;
71253;SDS011;59019;47.638;18.966;2023-04-01T14:15:41;8.65;;;4.00;;
71253;SDS011;59019;47.638;18.966;2023-04-01T14:18:30;18.10;;;8.45;;
71253;SDS011;59019;47.638;18.966;2023-04-01T14:40:52;3.70;;;0.95;;
71253;SDS011;59019;47.638;18.966;2023-04-01T14:49:36;9.50;;;2.47;;
71253;SDS011;59019;47.638;18.966;2023-04-01T14:52:13;4.85;;;1.13;;
71253;SDS011;59019;47.638;18.966;2023-04-01T14:54:49;4.45;;;1.10;;
71253;SDS011;59019;47.638;18.966;2023-04-01T14:57:23;4.35;;;1.02;;
71253;SDS011;59019;47.638;18.966;2023-04-01T14:59:51;13.30;;;4.60;;
71253;SDS011;59019;47.638;18.966;2023-04-01T15:13:29;8.98;;;2.20;;
71253;SDS011;59019;47.638;18.966;2023-04-01T15:16:20;4.73;;;1.30;;
71253;SDS011;59019;47.638;18.966;2023-04-01T15:26:47;4.13;;;1.33;;
71253;SDS011;59019;47.638;18.966;2023-04-01T15:37:31;3.27;;;0.80;;
71253;SDS011;59019;47.638;18.966;2023-04-01T16:02:48;2.03;;;0.40;;
71253;SDS011;59019;47.638;18.966;2023-04-01T16:22:17;4.78;;;1.75;;
71253;SDS011;59019;47.638;18.966;2023-04-01T16:24:44;15.03;;;5.33;;
71253;SDS011;59019;47.638;18.966;2023-04-01T16:35:22;6.95;;;2.42;;
71253;SDS011;59019;47.638;18.966;2023-04-01T16:48:58;7.32;;;3.30;;
71253;SDS011;59019;47.638;18.966;2023-04-01T16:59:47;7.07;;;2.05;;
71253;SDS011;59019;47.638;18.966;2023-04-01T17:02:17;7.30;;;2.10;;
71253;SDS011;59019;47.638;18.966;2023-04-01T17:05:01;6.45;;;2.40;;
71253;SDS011;59019;47.638;18.966;2023-04-01T17:16:14;25.20;;;9.70;;
71253;SDS011;59019;47.638;18.966;2023-04-01T17:29:57;11.73;;;5.60;;
71253;SDS011;59019;47.638;18.966;2023-04-01T17:40:37;11.73;;;5.20;;
71253;SDS011;59019;47.638;18.966;2023-04-01T17:45:54;10.55;;;4.43;;
71253;SDS011;59019;47.638;18.966;2023-04-01T17:53:36;9.60;;;3.83;;
71253;SDS011;59019;47.638;18.966;2023-04-01T17:56:37;8.43;;;2.92;;
71253;SDS011;59019;47.638;18.966;2023-04-01T17:59:34;14.88;;;6.88;;
71253;SDS011;59019;47.638;18.966;2023-04-01T18:02:50;6.80;;;3.25;;
71253;SDS011;59019;47.638;18.966;2023-04-01T18:10:25;6.18;;;2.47;;
71253;SDS011;59019;47.638;18.966;2023-04-01T18:13:11;4.40;;;1.52;;
71253;SDS011;59019;47.638;18.966;2023-04-01T18:26:50;5.38;;;2.25;;
71253;SDS011;59019;47.638;18.966;2023-04-01T18:29:40;6.18;;;2.70;;
71253;SDS011;59019;47.638;18.966;2023-04-01T18:32:15;5.33;;;2.20;;
71253;SDS011;59019;47.638;18.966;2023-04-01T18:34:52;4.13;;;1.27;;
71253;SDS011;59019;47.638;18.966;2023-04-01T18:45:57;5.87;;;1.60;;
71253;SDS011;59019;47.638;18.966;2023-04-01T18:48:46;5.97;;;2.17;;
71253;SDS011;59019;47.638;18.966;2023-04-01T18:51:47;6.22;;;2.20;;
71253;SDS011;59019;47.638;18.966;2023-04-01T18:54:24;6.35;;;1.98;;
71253;SDS011;59019;47.638;18.966;2023-04-01T18:57:04;7.72;;;2.50;;
71253;SDS011;59019;47.638;18.966;2023-04-01T18:59:42;5.37;;;1.47;;
71253;SDS011;59019;47.638;18.966;2023-04-01T19:02:36;4.70;;;1.38;;
71253;SDS011;59019;47.638;18.966;2023-04-01T19:05:19;7.07;;;2.75;;
71253;SDS011;59019;47.638;18.966;2023-04-01T19:07:55;5.85;;;1.98;;
71253;SDS011;59019;47.638;18.966;2023-04-01T19:10:38;4.60;;;1.60;;
71253;SDS011;59019;47.638;18.966;2023-04-01T19:18:25;5.82;;;1.70;;
71253;SDS011;59019;47.638;18.966;2023-04-01T19:23:58;5.70;;;2.70;;
71253;SDS011;59019;47.638;18.966;2023-04-01T19:35:19;4.47;;;1.10;;
71253;SDS011;59019;47.638;18.966;2023-04-01T19:38:04;4.97;;;1.65;;
71253;SDS011;59019;47.638;18.966;2023-04-01T19:43:07;5.10;;;2.60;;
71253;SDS011;59019;47.638;18.966;2023-04-01T19:51:01;4.22;;;1.63;;
71253;SDS011;59019;47.638;18.966;2023-04-01T19:53:41;4.93;;;1.30;;
71253;SDS011;59019;47.638;18.966;2023-04-01T19:56:23;11.13;;;6.10;;
71253;SDS011;59019;47.638;18.966;2023-04-01T20:10:08;4.47;;;1.58;;
71253;SDS011;59019;47.638;18.966;2023-04-01T20:18:20;5.35;;;1.52;;
71253;SDS011;59019;47.638;18.966;2023-04-01T20:20:54;3.90;;;1.13;;
71253;SDS011;59019;47.638;18.966;2023-04-01T20:23:56;3.25;;;0.98;;
71253;SDS011;59019;47.638;18.966;2023-04-01T20:26:21;4.67;;;1.67;;
71253;SDS011;59019;47.638;18.966;2023-04-01T20:31:41;9.35;;;5.32;;
71253;SDS011;59019;47.638;18.966;2023-04-01T20:53:35;10.10;;;5.50;;
71253;SDS011;59019;47.638;18.966;2023-04-01T21:01:41;8.95;;;4.20;;
71253;SDS011;59019;47.638;18.966;2023-04-01T21:04:22;10.93;;;5.88;;
71253;SDS011;59019;47.638;18.966;2023-04-01T21:13:10;15.50;;;9.05;;
71253;SDS011;59019;47.638;18.966;2023-04-01T21:16:00;10.05;;;5.65;;
71253;SDS011;59019;47.638;18.966;2023-04-01T21:18:32;7.22;;;3.10;;
71253;SDS011;59019;47.638;18.966;2023-04-01T21:34:52;11.20;;;6.10;;
71253;SDS011;59019;47.638;18.966;2023-04-01T21:37:33;6.60;;;2.95;;
71253;SDS011;59019;47.638;18.966;2023-04-01T22:00:29;6.63;;;2.50;;
71253;SDS011;59019;47.638;18.966;2023-04-01T22:06:00;4.50;;;1.70;;
71253;SDS011;59019;47.638;18.966;2023-04-01T22:11:29;5.70;;;2.03;;
71253;SDS011;59019;47.638;18.966;2023-04-01T22:14:13;5.88;;;2.10;;
71253;SDS011;59019;47.638;18.966;2023-04-01T22:16:56;5.33;;;2.10;;
71253;SDS011;59019;47.638;18.966;2023-04-01T22:24:55;4.68;;;1.58;;
71253;SDS011;59019;47.638;18.966;2023-04-01T22:32:47;4.38;;;1.80;;
71253;SDS011;59019;47.638;18.966;2023-04-01T22:52:57;3.83;;;1.45;;
71253;SDS011;59019;47.638;18.966;2023-04-01T22:55:38;4.47;;;1.55;;
71253;SDS011;59019;47.638;18.966;2023-04-01T22:58:08;4.50;;;1.70;;
71253;SDS011;59019;47.638;18.966;2023-04-01T23:03:17;3.92;;;1.27;;
71253;SDS011;59019;47.638;18.966;2023-04-01T23:05:54;3.08;;;1.00;;
71253;SDS011;59019;47.638;18.966;2023-04-01T23:11:19;3.33;;;1.30;;
71253;SDS011;59019;47.638;18.966;2023-04-01T23:13:47;2.80;;;0.90;;
71253;SDS011;59019;47.638;18.966;2023-04-01T23:16:38;3.70;;;0.80;;
71253;SDS011;59019;47.638;18.966;2023-04-01T23:28:03;2.90;;;0.80;;
71253;SDS011;59019;47.638;18.966;2023-04-01T23:33:38;2.72;;;0.80;;
71253;SDS011;59019;47.638;18.966;2023-04-01T23:35:58;3.75;;;1.27;;
71253;SDS011;59019;47.638;18.966;2023-04-01T23:38:35;3.53;;;1.17;;
71253;SDS011;59019;47.638;18.966;2023-04-01T23:41:04;4.25;;;1.45;;
71253;SDS011;59019;47.638;18.966;2023-04-01T23:43:34;3.47;;;0.95;;
71253;SDS011;59019;47.638;18.966;2023-04-01T23:46:03;2.85;;;1.10;;
71253;SDS011;59019;47.638;18.966;2023-04-01T23:48:36;4.78;;;1.30;;
71253;SDS011;59019;47.638;18.966;2023-04-01T23:51:18;5.47;;;2.20;;
71253;SDS011;59019;47.638;18.966;2023-04-01T23:53:48;3.42;;;1.08;;
71253;SDS011;59019;47.638;18.966;2023-04-01T23:56:42;18.67;;;8.25;;
71253;SDS011;59019;47.638;18.966;2023-04-01T23:59:30;15.35;;;5.28;;
